Baton, NC

5:27 PM EST on February 08, 2016 (GMT -0500)
Deer Creek | | Change Station
CLOSE
Current Station
Personal Weather Station
Location: Hudson, NC
Elevation: 1193 ft
Nearby Weather Stations

Elev 1193 ft 35.85 °N, 81.47 °W | Updated 3 seconds ago

Mostly Cloudy
Mostly Cloudy
47.6 °F
Feels Like 48 °F
N
0.0
Wind Variable Wind from SSW
Gusts 1.0 mph

Today
High -- | Low -- °F
--% Chance of Precip.
Yesterday
High -- | Low -- °F
Precip. -- in
Pressure 29.60 in
Visibility 10.0 miles
Clouds Scattered Clouds 6500 ft
Windchill 48 °F
Dew Point 26 °F
Humidity 43%
Rainfall 0.00 in
Snow Depth Not available.
7:20 AM 5:59 PM
New Moon, 0% visible
METAR KHKY 082153Z AUTO VRB03KT 10SM SCT065 09/M02 A2962 RMK AO2 SLP024 T00891022
Pressure 29.60 in
Visibility 10.0 miles
Clouds Scattered Clouds 6500 ft
Windchill 48 °F
Dew Point 26 °F
Humidity 43%
Rainfall 0.00 in
Snow Depth Not available.
7:20 AM 5:59 PM
New Moon, 0% visible
METAR KHKY 082153Z AUTO VRB03KT 10SM SCT065 09/M02 A2962 RMK AO2 SLP024 T00891022

10-Day Weather Forecast

Almanac

Astronomy

Feb. 08, 2016 Rise Set
Actual Time
Civil Twilight
Nautical Twilight
Astronomical Twilight
Moon
Length of Visible Light
Length of Day
Tomorrow will be .
, % of the Moon is Illuminated

Today's Extremes

State Highs State Lows

Community

WunderPhotos

Upload Photos

1,891,518 photos uploaded!

WunderBlog® & News

Nearby

Air Quality

  Air Quality AQ Index Pollutant
Not available.

Snow Depth

Station Depth Elevation

Earthquake Activity

City Distance Mag. Time & Date
Minimum magnitude displayed is 2.5.

Coastal Water Temperatures

Place Temperature

Stations

Nearby Weather Stations

Station Location Temp. Windchill Dew Point Humidity Wind Precip. Elev Updated Type
                   

Watches & Warnings

There are currently no watches in effect.